Moland, Minnesota
Current Conditions -  °F | °C
As of 1:45 PM on Wednesday 28 Jan 2015 (Local Time) from KSYN Reporting Station
Overcast Overcast  
Wind Chill: 23°   Ceiling: 800
Heat Index: 32°   Visibility: 4mi
Dew Point: 28°   Wind: 12mph
Humidity: 87%   Direction: 140°SE
Pressure: 29.82"   Gusts: NA
Location:  44.2435°N, 92.9583°W
Report Text: KSYN 281945Z AUTO 14010KT 4SM OVC008 00/M02 A2982 RMK AO2
Loading
Personal Weather Stations






























Interactive Weather Map New forecast layout! Learn more

10-Day Weather Forecast

Advertisements
Track Severe Weather on mobile